Time;durP1;ratioP1;P1;durP2;ratioP2;P2;SDS_P1;SDS_P2;PMS_P1;PMS_P2;Temp;Humidity;BMP_temperature;BMP_pressure;BME280_temperature;BME280_humidity;BME280_pressure;Samples;Min_cycle;Max_cycle;Signal;HPM_P1;HPM_P2
2021/07/31 02:55:51;;;;;;;25.60;18.77;;;20.30;99.90;;;;;;5071994;28;20372;-79
2021/07/31 02:58:16;;;;;;;25.90;21.40;;;20.10;99.90;;;;;;5071451;28;20086;-80
2021/07/31 03:00:42;;;;;;;27.98;20.00;;;20.10;99.90;;;;;;5069968;28;20028;-81
2021/07/31 03:03:08;;;;;;;28.67;22.33;;;20.20;99.90;;;;;;5071349;28;20383;-81
2021/07/31 18:01:42;;;;;;;18.60;10.15;;;27.90;82.90;;;;;;5071788;28;20457;-80
2021/07/31 18:04:07;;;;;;;12.05;9.27;;;27.50;85.60;;;;;;5070965;28;20043;-84
2021/07/31 18:06:33;;;;;;;27.60;17.40;;;27.40;87.40;;;;;;5070777;28;20112;-85
2021/07/31 18:09:00;;;;;;;23.13;16.63;;;27.40;88.50;;;;;;5071067;28;20028;-83
2021/07/31 18:11:25;;;;;;;36.53;30.10;;;27.30;89.00;;;;;;5069972;28;20044;-83
2021/07/31 18:13:51;;;;;;;25.83;18.70;;;27.30;89.50;;;;;;5071295;28;20471;-83
2021/07/31 18:16:17;;;;;;;18.15;12.55;;;27.30;89.70;;;;;;5070934;28;20021;-82
2021/07/31 18:18:42;;;;;;;16.17;12.45;;;27.30;89.80;;;;;;5071252;28;20138;-83
2021/07/31 18:21:09;;;;;;;14.77;10.57;;;27.30;89.80;;;;;;5070845;28;20112;-82
2021/07/31 18:23:35;;;;;;;15.07;10.38;;;27.30;89.80;;;;;;5070808;28;20425;-82
2021/07/31 18:26:01;;;;;;;15.52;10.73;;;27.30;90.10;;;;;;5071012;28;20017;-82
2021/07/31 18:28:27;;;;;;;15.85;10.27;;;27.30;90.30;;;;;;5070852;28;20021;-82
2021/07/31 18:30:52;;;;;;;16.35;11.25;;;27.30;90.50;;;;;;5071001;28;20047;-82
2021/07/31 18:33:18;;;;;;;19.23;10.10;;;27.30;90.90;;;;;;5070536;28;20060;-83
2021/07/31 18:35:43;;;;;;;17.55;10.60;;;27.20;91.00;;;;;;5070944;28;20045;-82
2021/07/31 18:38:09;;;;;;;14.93;10.73;;;27.10;91.20;;;;;;5069096;28;20032;-82
2021/07/31 18:40:36;;;;;;;18.00;10.13;;;27.20;91.30;;;;;;5069075;28;20032;-82
2021/07/31 18:43:02;;;;;;;18.08;9.98;;;27.10;91.60;;;;;;5070595;28;20021;-82
2021/07/31 18:45:27;;;;;;;15.88;10.63;;;27.00;91.70;;;;;;5070353;28;20019;-82
2021/07/31 18:47:53;;;;;;;16.60;10.55;;;27.00;91.90;;;;;;5070306;28;20056;-82
2021/07/31 18:50:18;;;;;;;18.27;10.68;;;27.00;91.80;;;;;;5070864;28;20032;-82
2021/07/31 18:52:44;;;;;;;15.52;10.63;;;26.90;92.00;;;;;;5070122;28;20033;-82
2021/07/31 18:55:10;;;;;;;18.00;11.30;;;26.90;91.90;;;;;;5070323;28;20028;-82
2021/07/31 18:57:36;;;;;;;23.00;11.70;;;26.90;92.30;;;;;;5070037;28;20052;-83
2021/07/31 19:00:02;;;;;;;18.40;11.80;;;26.80;92.70;;;;;;5069755;28;20052;-83
2021/07/31 19:02:27;;;;;;;16.80;11.35;;;26.70;92.80;;;;;;5068651;28;20479;-83
2021/07/31 19:04:53;;;;;;;18.10;11.40;;;26.70;93.00;;;;;;5071205;28;20063;-83
2021/07/31 19:07:19;;;;;;;18.75;13.10;;;26.70;93.00;;;;;;5070191;28;20071;-83
2021/07/31 19:09:44;;;;;;;21.23;12.65;;;26.60;93.10;;;;;;5070648;28;20108;-82
2021/07/31 19:12:11;;;;;;;20.55;12.98;;;26.60;93.10;;;;;;5061856;28;20075;-83
2021/07/31 19:14:37;;;;;;;20.83;13.00;;;26.60;93.20;;;;;;5056381;28;20040;-83
2021/07/31 19:17:03;;;;;;;21.33;13.23;;;26.50;93.30;;;;;;5056698;28;20029;-83
2021/07/31 19:19:28;;;;;;;17.75;13.10;;;26.50;93.30;;;;;;5056494;28;20417;-83
2021/07/31 19:21:54;;;;;;;25.38;14.85;;;26.50;93.40;;;;;;5056218;28;20025;-83
2021/07/31 19:24:19;;;;;;;28.35;14.60;;;26.50;93.50;;;;;;5056335;28;20021;-82
2021/07/31 19:26:45;;;;;;;53.38;28.13;;;26.40;93.50;;;;;;5056514;28;20095;-82
2021/07/31 19:29:11;;;;;;;49.33;25.73;;;26.40;93.60;;;;;;5054865;28;20052;-84
2021/07/31 19:31:36;;;;;;;103.30;87.50;;;26.30;93.60;;;;;;5056428;28;20025;-86
2021/07/31 19:34:02;;;;;;;77.13;59.35;;;26.30;93.60;;;;;;5056599;28;20465;-82
2021/07/31 19:36:29;;;;;;;55.97;40.38;;;26.30;93.60;;;;;;5056001;28;20063;-79
2021/07/31 19:38:56;;;;;;;50.90;36.45;;;26.30;93.80;;;;;;5056029;28;20025;-83
2021/07/31 19:41:22;;;;;;;37.90;25.30;;;26.30;93.70;;;;;;5056249;28;20116;-81
2021/07/31 19:43:48;;;;;;;34.58;22.25;;;26.20;93.70;;;;;;5056014;28;20026;-83
2021/07/31 19:46:14;;;;;;;37.70;23.88;;;26.30;93.70;;;;;;5056311;28;20029;-82
2021/07/31 19:48:40;;;;;;;31.83;21.23;;;26.20;93.80;;;;;;5055965;28;20067;-84
2021/07/31 19:51:07;;;;;;;40.75;28.00;;;26.20;93.90;;;;;;5056115;28;20468;-89
2021/07/31 19:53:33;;;;;;;32.90;22.05;;;26.10;94.00;;;;;;5056177;28;20052;-82
2021/07/31 19:56:00;;;;;;;34.60;23.25;;;26.10;93.90;;;;;;5056067;28;20033;-85
2021/07/31 19:58:26;;;;;;;32.58;21.58;;;26.00;94.00;;;;;;5055659;28;20025;-84
2021/07/31 20:00:51;;;;;;;30.05;20.65;;;26.00;94.20;;;;;;5055334;28;20052;-81
2021/07/31 20:03:17;;;;;;;32.40;21.38;;;26.00;94.20;;;;;;5056033;28;20021;-81
2021/07/31 20:05:43;;;;;;;35.42;21.25;;;26.00;94.30;;;;;;5055673;28;20025;-80
2021/07/31 20:08:09;;;;;;;36.55;21.35;;;26.00;94.40;;;;;;5055613;28;20083;-80
2021/07/31 20:10:34;;;;;;;33.10;20.23;;;25.90;94.50;;;;;;5055531;28;20079;-80
2021/07/31 20:13:00;;;;;;;31.58;19.67;;;25.80;94.60;;;;;;5055691;28;20112;-80
2021/07/31 20:15:26;;;;;;;34.38;21.80;;;25.80;94.80;;;;;;5055489;28;20021;-80
2021/07/31 20:17:51;;;;;;;30.73;21.02;;;25.70;95.20;;;;;;5055408;28;20078;-80
2021/07/31 20:20:17;;;;;;;30.35;20.48;;;25.80;95.50;;;;;;5055893;28;20021;-80
2021/07/31 20:22:43;;;;;;;30.38;19.30;;;25.70;95.50;;;;;;5054709;28;20032;-80
2021/07/31 20:25:09;;;;;;;31.98;19.98;;;25.60;95.70;;;;;;5054794;28;20487;-80
2021/07/31 20:27:35;;;;;;;29.52;20.13;;;25.60;95.80;;;;;;5055557;28;20096;-80
2021/07/31 20:30:01;;;;;;;31.13;18.80;;;25.50;95.90;;;;;;5055191;28;20440;-80
2021/07/31 20:32:27;;;;;;;29.25;18.45;;;25.50;96.00;;;;;;5055025;28;20021;-80
2021/07/31 20:34:53;;;;;;;31.70;18.58;;;25.50;96.10;;;;;;5055042;28;20021;-80
2021/07/31 20:37:19;;;;;;;25.98;18.30;;;25.50;96.10;;;;;;5055157;28;20459;-80
2021/07/31 20:39:45;;;;;;;28.27;18.55;;;25.40;96.20;;;;;;5054918;28;20131;-80
2021/07/31 20:42:12;;;;;;;26.80;17.75;;;25.40;96.30;;;;;;5055181;28;20498;-80
2021/07/31 20:44:38;;;;;;;25.73;17.73;;;25.40;96.40;;;;;;5055080;28;20024;-80
2021/07/31 20:47:04;;;;;;;26.17;17.60;;;25.40;96.40;;;;;;5054851;28;20044;-80
2021/07/31 20:49:31;;;;;;;25.20;17.10;;;25.30;96.40;;;;;;5055569;28;20054;-80
2021/07/31 20:51:57;;;;;;;28.48;18.00;;;25.20;96.60;;;;;;5055089;28;20531;-80
2021/07/31 20:54:23;;;;;;;28.38;17.80;;;25.20;96.70;;;;;;5054966;28;20400;-80
2021/07/31 20:56:49;;;;;;;29.48;17.75;;;25.20;96.80;;;;;;5054679;28;20146;-80
2021/07/31 20:59:16;;;;;;;24.50;17.30;;;25.20;97.00;;;;;;5054771;28;20031;-79
2021/07/31 21:01:43;;;;;;;26.92;17.67;;;25.20;96.90;;;;;;5054794;28;20021;-80
2021/07/31 21:04:09;;;;;;;23.35;17.05;;;25.10;97.00;;;;;;5054753;28;20056;-80
2021/07/31 21:06:35;;;;;;;26.85;17.52;;;25.10;97.00;;;;;;5054758;28;20395;-80
2021/07/31 21:09:00;;;;;;;28.08;17.23;;;25.00;97.10;;;;;;5054752;28;20025;-80
2021/07/31 21:11:26;;;;;;;27.90;17.48;;;25.00;97.20;;;;;;5054587;28;20029;-80
2021/07/31 21:13:52;;;;;;;25.23;17.80;;;24.90;97.30;;;;;;5054259;28;20021;-80
2021/07/31 21:16:17;;;;;;;24.55;17.15;;;24.90;97.50;;;;;;5054214;28;20078;-80
2021/07/31 21:18:43;;;;;;;23.55;16.52;;;24.90;97.70;;;;;;5054243;28;20074;-80
2021/07/31 21:21:09;;;;;;;30.02;17.92;;;24.90;97.70;;;;;;5054035;28;20025;-80
2021/07/31 21:23:39;;;;;;;31.77;17.30;;;24.90;97.60;;;;;;5054050;28;20036;-80
2021/07/31 21:26:08;;;;;;;;;;;24.80;97.70;;;;;;5054906;28;20021;-80
2021/07/31 21:28:35;;;;;;;25.13;16.48;;;24.80;97.60;;;;;;5054431;28;19904;-80
2021/07/31 21:31:04;;;;;;;26.20;17.05;;;24.80;97.80;;;;;;5053918;28;20075;-80
2021/07/31 21:33:30;;;;;;;25.58;17.45;;;24.80;98.00;;;;;;5054042;28;20036;-80
2021/07/31 21:36:01;;;;;;;28.45;17.48;;;24.70;98.00;;;;;;5053876;28;20391;-80
2021/07/31 21:38:27;;;;;;;25.92;16.98;;;24.70;97.90;;;;;;5054408;28;20040;-80
2021/07/31 21:40:53;;;;;;;23.95;16.75;;;24.60;98.00;;;;;;5054151;28;20033;-80
2021/07/31 21:43:19;;;;;;;21.85;16.60;;;24.60;98.10;;;;;;5053871;28;20100;-80
2021/07/31 21:45:44;;;;;;;23.75;16.67;;;24.60;98.20;;;;;;5053723;28;20063;-80
2021/07/31 21:48:10;;;;;;;22.73;15.38;;;24.60;98.20;;;;;;5053825;28;20017;-80
2021/07/31 21:50:35;;;;;;;23.20;16.45;;;24.60;98.10;;;;;;5054102;28;20465;-80
2021/07/31 21:53:01;;;;;;;20.42;15.10;;;24.50;98.20;;;;;;5053615;28;20494;-80
2021/07/31 21:55:27;;;;;;;26.42;16.40;;;24.50;98.20;;;;;;5053587;28;20064;-80
2021/07/31 21:57:53;;;;;;;18.95;14.88;;;24.50;98.20;;;;;;5053705;28;20057;-80
2021/07/31 22:00:34;;;;;;;22.90;15.05;;;24.40;98.20;;;;;;5053591;28;20454;-80
2021/07/31 22:03:02;;;;;;;21.17;15.68;;;24.40;98.20;;;;;;5053767;28;20100;-80
2021/07/31 22:05:28;;;;;;;24.05;15.40;;;24.40;98.30;;;;;;5053625;28;20067;-80
2021/07/31 22:07:54;;;;;;;18.45;13.98;;;24.40;98.30;;;;;;5053874;28;20039;-80
2021/07/31 22:10:19;;;;;;;22.08;14.60;;;24.40;98.20;;;;;;5052313;28;20455;-80
2021/07/31 22:12:45;;;;;;;23.63;16.17;;;24.40;98.10;;;;;;5053455;28;20100;-80
2021/07/31 22:15:11;;;;;;;22.55;15.48;;;24.50;98.20;;;;;;5053974;28;20471;-80
2021/07/31 22:17:37;;;;;;;22.42;15.50;;;24.40;98.20;;;;;;5053614;28;20029;-81
2021/07/31 22:20:04;;;;;;;23.10;16.15;;;24.40;98.00;;;;;;5053535;28;20029;-81
2021/07/31 22:22:29;;;;;;;22.50;16.95;;;24.40;98.10;;;;;;5053265;28;20071;-80
2021/07/31 22:24:57;;;;;;;25.10;17.25;;;24.40;98.50;;;;;;5053378;28;20056;-80
2021/07/31 22:27:22;;;;;;;21.52;16.50;;;24.40;98.20;;;;;;5053673;28;20021;-80
2021/07/31 22:29:48;;;;;;;23.30;16.50;;;24.30;98.10;;;;;;5053988;28;20025;-80
2021/07/31 22:32:14;;;;;;;24.40;17.10;;;24.30;98.20;;;;;;5053944;28;20375;-80
2021/07/31 22:34:39;;;;;;;23.60;16.15;;;24.20;98.30;;;;;;5052041;28;20025;-80
2021/07/31 22:37:05;;;;;;;19.05;15.25;;;24.20;98.30;;;;;;5053558;28;20021;-80
2021/07/31 22:39:30;;;;;;;18.20;14.93;;;24.20;98.50;;;;;;5053271;28;20472;-80
2021/07/31 22:41:56;;;;;;;20.40;14.65;;;24.20;98.50;;;;;;5053601;28;20021;-80
2021/07/31 22:44:22;;;;;;;23.55;14.52;;;24.10;98.40;;;;;;5053282;28;20075;-80
2021/07/31 22:46:47;;;;;;;17.63;13.95;;;24.10;98.40;;;;;;5054564;28;20025;-80
2021/07/31 22:49:13;;;;;;;17.27;13.82;;;24.10;98.30;;;;;;5057369;28;20028;-80
2021/07/31 22:51:39;;;;;;;18.20;13.00;;;24.10;98.20;;;;;;5057091;28;20075;-80
2021/07/31 22:54:04;;;;;;;19.08;13.10;;;24.10;98.20;;;;;;5057155;28;20083;-80
2021/07/31 22:56:30;;;;;;;18.10;12.85;;;24.10;98.10;;;;;;5055617;28;20025;-81
2021/07/31 22:58:55;;;;;;;18.00;13.20;;;24.10;98.20;;;;;;5056759;28;20036;-80
2021/07/31 23:01:21;;;;;;;15.23;11.98;;;24.10;98.20;;;;;;5056558;28;20052;-80
2021/07/31 23:03:47;;;;;;;16.33;12.20;;;24.00;98.20;;;;;;5056656;28;20028;-80
2021/07/31 23:06:12;;;;;;;15.32;11.98;;;24.00;98.30;;;;;;5056730;28;20033;-80
2021/07/31 23:08:38;;;;;;;14.43;11.43;;;23.90;98.30;;;;;;5055441;28;20052;-80
2021/07/31 23:11:08;;;;;;;13.68;10.75;;;24.00;98.40;;;;;;5056701;28;20032;-80
2021/07/31 23:13:35;;;;;;;13.38;10.57;;;23.90;98.30;;;;;;5056840;28;20033;-80
2021/07/31 23:16:01;;;;;;;12.88;10.75;;;23.90;98.30;;;;;;5055257;28;20419;-80
2021/07/31 23:18:26;;;;;;;14.57;10.68;;;23.90;98.30;;;;;;5056725;28;20032;-80
2021/07/31 23:20:52;;;;;;;15.23;10.20;;;23.80;98.30;;;;;;5056596;28;20032;-81
2021/07/31 23:23:18;;;;;;;13.10;10.93;;;23.90;98.20;;;;;;5056403;28;20021;-81
2021/07/31 23:25:44;;;;;;;17.65;12.15;;;23.80;98.30;;;;;;5056685;28;20017;-80
2021/07/31 23:28:09;;;;;;;12.07;10.35;;;23.80;98.20;;;;;;5056609;28;20029;-80
2021/07/31 23:30:35;;;;;;;11.75;10.43;;;23.80;98.20;;;;;;5056438;28;20032;-80
2021/07/31 23:33:01;;;;;;;14.05;10.77;;;23.80;98.30;;;;;;5056230;28;20029;-80
2021/07/31 23:35:26;;;;;;;12.57;10.60;;;23.80;98.20;;;;;;5056062;28;20021;-80
2021/07/31 23:37:52;;;;;;;13.57;10.93;;;23.80;98.10;;;;;;5056342;28;20187;-80
2021/07/31 23:40:21;;;;;;;14.82;10.52;;;23.80;98.10;;;;;;5056250;28;20036;-80
2021/07/31 23:42:47;;;;;;;14.48;10.68;;;23.70;98.10;;;;;;5056068;28;20108;-80
2021/07/31 23:45:13;;;;;;;12.30;10.93;;;23.80;98.20;;;;;;5056178;28;20495;-80
2021/07/31 23:47:38;;;;;;;15.55;11.30;;;23.80;98.30;;;;;;5055950;28;20021;-80
2021/07/31 23:50:05;;;;;;;11.98;10.57;;;23.80;98.30;;;;;;5056317;28;20040;-80
2021/07/31 23:52:31;;;;;;;15.02;11.07;;;23.80;98.20;;;;;;5056270;28;20024;-80
2021/07/31 23:54:57;;;;;;;14.73;10.98;;;23.80;98.20;;;;;;5055792;28;20029;-80
2021/07/31 23:57:22;;;;;;;13.10;11.30;;;23.80;98.20;;;;;;5055838;28;20056;-80
2021/07/31 23:59:49;;;;;;;24.92;11.77;;;23.80;98.10;;;;;;5055511;28;20130;-80
